PWSweather.com
Personal Weather Stations
Station Observations
SHAHALMS1
Eftra, Falkenberg, HA

EftraFalkenberg, HA

Lat: 56.85, Lon: 12.65

Elevation: 140

Station Type:

http://hem.passagen.se/risarp101

High Low Average
Temperature 64.4°F18.0°C 55.6°F13.1°C 57.9°F14.4°C
Dew Point 58.0°F14.4°C 51.1°F10.6°C 53.8°F12.1°C
Winds 8.3 mph 13.4 kmh Calm Calm 4.0 mph SSE6.4 kmh SSE
Wind Gusts 23.3 mph37.5 kmh -- 10.0 mph16.1 kmh
Humidity 92% 70% 86%
Pressure 30.09 in1019.0 mb 26.96 in913.0 mb -
Precipitation 0.00 in0.0 mm - -
Hour Temp Dew Point Humidity Winds Wind Gusts Pressure Precip Precip Rate Daily Precip Total
12:00 AM 56.3°F13.5°C 52.5°F11.4°C 87% 4.6 mph S7.4 kmh S 8.9 mph14.3 kmh 30.01 in1016.3 mb 0.00 in0.0 mm 0.00 in0.0 mm 0.00 in0.0 mm
12:15 AM 56.3°F13.5°C 52.8°F11.6°C 88% 4.4 mph SSW7.1 kmh SSW 10.4 mph16.7 kmh 29.98 in1015.2 mb 0.00 in0.0 mm 0.00 in0.0 mm 0.00 in0.0 mm
12:30 AM 56.3°F13.5°C 52.8°F11.6°C 88% 5.7 mph WSW9.2 kmh WSW 12.2 mph19.6 kmh 30.01 in1016.3 mb 0.00 in0.0 mm 0.00 in0.0 mm 0.00 in0.0 mm
12:45 AM 56.3°F13.5°C 52.8°F11.6°C 88% 4.2 mph WSW6.8 kmh WSW 10.0 mph16.1 kmh 30.01 in1016.3 mb 0.00 in0.0 mm 0.00 in0.0 mm 0.00 in0.0 mm
01:00 AM 56.1°F13.4°C 52.9°F11.6°C 89% 4.2 mph WSW6.8 kmh WSW 10.4 mph16.7 kmh 30.01 in1016.3 mb 0.00 in0.0 mm 0.00 in0.0 mm 0.00 in0.0 mm
01:15 AM 55.9°F13.3°C 52.7°F11.5°C 89% 4.8 mph SW7.7 kmh SW 12.5 mph20.1 kmh 30.01 in1016.3 mb 0.00 in0.0 mm 0.00 in0.0 mm 0.00 in0.0 mm
01:30 AM 55.9°F13.3°C 52.7°F11.5°C 89% 2.6 mph WSW4.2 kmh WSW 6.4 mph10.3 kmh 30.01 in1016.3 mb 0.00 in0.0 mm 0.00 in0.0 mm 0.00 in0.0 mm
01:45 AM 55.9°F13.3°C 52.7°F11.5°C 89% 3.9 mph SW6.3 kmh SW 10.0 mph16.1 kmh 30.01 in1016.3 mb 0.00 in0.0 mm 0.00 in0.0 mm 0.00 in0.0 mm
02:00 AM 55.9°F13.3°C 52.7°F11.5°C 89% 2.3 mph S3.7 kmh S 6.1 mph9.8 kmh 30.01 in1016.3 mb 0.00 in0.0 mm 0.00 in0.0 mm 0.00 in0.0 mm
02:15 AM 55.8°F13.2°C 52.6°F11.4°C 89% 4.0 mph S6.4 kmh S 8.6 mph13.8 kmh 30.01 in1016.3 mb 0.00 in0.0 mm 0.00 in0.0 mm 0.00 in0.0 mm
02:30 AM 55.8°F13.2°C 52.6°F11.4°C 89% 2.0 mph SSW3.2 kmh SSW 8.6 mph13.8 kmh 30.01 in1016.3 mb 0.00 in0.0 mm 0.00 in0.0 mm 0.00 in0.0 mm
02:45 AM 55.9°F13.3°C 52.7°F11.5°C 89% 0.7 mph S1.1 kmh S 6.4 mph10.3 kmh 30.01 in1016.3 mb 0.00 in0.0 mm 0.00 in0.0 mm 0.00 in0.0 mm
03:00 AM 55.9°F13.3°C 52.7°F11.5°C 89% 1.3 mph S2.1 kmh S 4.7 mph7.6 kmh 29.98 in1015.2 mb 0.00 in0.0 mm 0.00 in0.0 mm 0.00 in0.0 mm
03:15 AM 55.9°F13.3°C 52.7°F11.5°C 89% 0.2 mph SSE0.3 kmh SSE 3.2 mph5.1 kmh 30.01 in1016.3 mb 0.00 in0.0 mm 0.00 in0.0 mm 0.00 in0.0 mm
03:30 AM 55.9°F13.3°C 52.7°F11.5°C 89% Calm Calm -- 29.98 in1015.2 mb 0.00 in0.0 mm 0.00 in0.0 mm 0.00 in0.0 mm
03:45 AM 55.9°F13.3°C 52.7°F11.5°C 89% 0.3 mph SE0.5 kmh SE 5.0 mph8.0 kmh 29.98 in1015.2 mb 0.00 in0.0 mm 0.00 in0.0 mm 0.00 in0.0 mm
04:00 AM 55.8°F13.2°C 52.6°F11.4°C 89% Calm Calm -- 29.98 in1015.2 mb 0.00 in0.0 mm 0.00 in0.0 mm 0.00 in0.0 mm
04:15 AM 55.8°F13.2°C 52.6°F11.4°C 89% 1.4 mph ESE2.3 kmh ESE 6.1 mph9.8 kmh 29.98 in1015.2 mb 0.00 in0.0 mm 0.00 in0.0 mm 0.00 in0.0 mm
04:30 AM 55.8°F13.2°C 52.6°F11.4°C 89% 0.5 mph ESE0.8 kmh ESE 5.0 mph8.0 kmh 29.98 in1015.2 mb 0.00 in0.0 mm 0.00 in0.0 mm 0.00 in0.0 mm
04:45 AM 55.6°F13.1°C 52.4°F11.3°C 89% 2.0 mph SE3.2 kmh SE 7.9 mph12.7 kmh 29.98 in1015.2 mb 0.00 in0.0 mm 0.00 in0.0 mm 0.00 in0.0 mm
05:00 AM 55.6°F13.1°C 52.4°F11.3°C 89% 5.6 mph SE9.0 kmh SE 12.5 mph20.1 kmh 29.98 in1015.2 mb 0.00 in0.0 mm 0.00 in0.0 mm 0.00 in0.0 mm
05:15 AM 55.8°F13.2°C 52.9°F11.6°C 90% 2.1 mph SSE3.4 kmh SSE 8.9 mph14.3 kmh 29.98 in1015.2 mb 0.00 in0.0 mm 0.00 in0.0 mm 0.00 in0.0 mm
05:30 AM 55.8°F13.2°C 52.9°F11.6°C 90% 2.0 mph SSE3.2 kmh SSE 9.7 mph15.6 kmh 30.01 in1016.3 mb 0.00 in0.0 mm 0.00 in0.0 mm 0.00 in0.0 mm
05:45 AM 55.8°F13.2°C 52.9°F11.6°C 90% 2.1 mph SSE3.4 kmh SSE 5.7 mph9.2 kmh 29.98 in1015.2 mb 0.00 in0.0 mm 0.00 in0.0 mm 0.00 in0.0 mm
05:55 AM 55.8°F13.2°C 52.9°F11.6°C 90% Calm Calm -- 29.98 in1015.2 mb 0.00 in0.0 mm 0.00 in0.0 mm 0.00 in0.0 mm
06:00 AM 55.8°F13.2°C 52.9°F11.6°C 90% 2.3 mph SE3.7 kmh SE 9.7 mph15.6 kmh 30.01 in1016.3 mb 0.00 in0.0 mm 0.00 in0.0 mm 0.00 in0.0 mm
06:15 AM 55.8°F13.2°C 52.9°F11.6°C 90% 2.5 mph SE4.0 kmh SE 9.7 mph15.6 kmh 30.01 in1016.3 mb 0.00 in0.0 mm 0.00 in0.0 mm 0.00 in0.0 mm
06:30 AM 55.8°F13.2°C 52.9°F11.6°C 90% 4.2 mph SE6.8 kmh SE 9.3 mph15.0 kmh 30.01 in1016.3 mb 0.00 in0.0 mm 0.00 in0.0 mm 0.00 in0.0 mm
06:45 AM 55.8°F13.2°C 52.9°F11.6°C 90% 3.1 mph SSE5.0 kmh SSE 11.8 mph19.0 kmh 30.01 in1016.3 mb 0.00 in0.0 mm 0.00 in0.0 mm 0.00 in0.0 mm
07:00 AM 55.9°F13.3°C 53.0°F11.7°C 90% 5.0 mph SE8.0 kmh SE 9.3 mph15.0 kmh 30.01 in1016.3 mb 0.00 in0.0 mm 0.00 in0.0 mm 0.00 in0.0 mm
07:15 AM 56.1°F13.4°C 53.2°F11.8°C 90% 5.0 mph SE8.0 kmh SE 9.7 mph15.6 kmh 30.01 in1016.3 mb 0.00 in0.0 mm 0.00 in0.0 mm 0.00 in0.0 mm
07:30 AM 56.1°F13.4°C 53.5°F11.9°C 91% 5.1 mph SE8.2 kmh SE 12.2 mph19.6 kmh 30.01 in1016.3 mb 0.00 in0.0 mm 0.00 in0.0 mm 0.00 in0.0 mm
07:45 AM 56.3°F13.5°C 53.7°F12.1°C 91% 4.2 mph ESE6.8 kmh ESE 11.5 mph18.5 kmh 30.01 in1016.3 mb 0.00 in0.0 mm 0.00 in0.0 mm 0.00 in0.0 mm
08:00 AM 56.5°F13.6°C 53.9°F12.2°C 91% 2.3 mph ESE3.7 kmh ESE 7.5 mph12.1 kmh 30.01 in1016.3 mb 0.00 in0.0 mm 0.00 in0.0 mm 0.00 in0.0 mm
08:15 AM 56.8°F13.8°C 54.2°F12.3°C 91% 4.5 mph SE7.2 kmh SE 10.4 mph16.7 kmh 30.01 in1016.3 mb 0.00 in0.0 mm 0.00 in0.0 mm 0.00 in0.0 mm
08:30 AM 57.2°F14.0°C 54.6°F12.6°C 91% 3.9 mph SE6.3 kmh SE 9.7 mph15.6 kmh 30.01 in1016.3 mb 0.00 in0.0 mm 0.00 in0.0 mm 0.00 in0.0 mm
08:45 AM 57.6°F14.2°C 55.0°F12.8°C 91% 4.3 mph SE6.9 kmh SE 10.4 mph16.7 kmh 30.04 in1017.3 mb 0.00 in0.0 mm 0.00 in0.0 mm 0.00 in0.0 mm
09:00 AM 57.9°F14.4°C 55.3°F12.9°C 91% 5.8 mph SE9.3 kmh SE 12.5 mph20.1 kmh 30.01 in1016.3 mb 0.00 in0.0 mm 0.00 in0.0 mm 0.00 in0.0 mm
09:15 AM 58.6°F14.8°C 56.3°F13.5°C 92% 3.4 mph SE5.5 kmh SE 7.9 mph12.7 kmh 30.01 in1016.3 mb 0.00 in0.0 mm 0.00 in0.0 mm 0.00 in0.0 mm
09:30 AM 59.2°F15.1°C 56.6°F13.7°C 91% 3.6 mph SSE5.8 kmh SSE 10.0 mph16.1 kmh 30.01 in1016.3 mb 0.00 in0.0 mm 0.00 in0.0 mm 0.00 in0.0 mm
09:45 AM 59.5°F15.3°C 56.9°F13.8°C 91% 4.6 mph SSE7.4 kmh SSE 12.5 mph20.1 kmh 30.04 in1017.3 mb 0.00 in0.0 mm 0.00 in0.0 mm 0.00 in0.0 mm
10:00 AM 59.9°F15.5°C 57.0°F13.9°C 90% 2.7 mph SE4.3 kmh SE 11.8 mph19.0 kmh 30.04 in1017.3 mb 0.00 in0.0 mm 0.00 in0.0 mm 0.00 in0.0 mm
10:15 AM 60.3°F15.7°C 57.0°F13.9°C 89% 4.0 mph SSE6.4 kmh SSE 10.4 mph16.7 kmh 30.04 in1017.3 mb 0.00 in0.0 mm 0.00 in0.0 mm 0.00 in0.0 mm
10:30 AM 60.4°F15.8°C 57.2°F14.0°C 89% 4.8 mph SE7.7 kmh SE 12.5 mph20.1 kmh 30.04 in1017.3 mb 0.00 in0.0 mm 0.00 in0.0 mm 0.00 in0.0 mm
10:45 AM 61.0°F16.1°C 57.4°F14.1°C 88% 5.3 mph S8.5 kmh S 10.7 mph17.2 kmh 30.04 in1017.3 mb 0.00 in0.0 mm 0.00 in0.0 mm 0.00 in0.0 mm
11:00 AM 61.5°F16.4°C 57.6°F14.2°C 87% 5.1 mph SSE8.2 kmh SSE 12.2 mph19.6 kmh 30.09 in1019.0 mb 0.00 in0.0 mm 0.00 in0.0 mm 0.00 in0.0 mm
11:15 AM 62.2°F16.8°C 58.0°F14.4°C 86% 4.2 mph S6.8 kmh S 11.5 mph18.5 kmh 30.09 in1019.0 mb 0.00 in0.0 mm 0.00 in0.0 mm 0.00 in0.0 mm
11:30 AM 62.8°F17.1°C 57.9°F14.4°C 84% 4.4 mph SSE7.1 kmh SSE 13.6 mph21.9 kmh 30.09 in1019.0 mb 0.00 in0.0 mm 0.00 in0.0 mm 0.00 in0.0 mm
11:45 AM 63.0°F17.2°C 57.0°F13.9°C 81% 5.3 mph S8.5 kmh S 12.2 mph19.6 kmh 30.09 in1019.0 mb 0.00 in0.0 mm 0.00 in0.0 mm 0.00 in0.0 mm
12:00 PM 63.3°F17.4°C 57.4°F14.1°C 81% 3.8 mph S6.1 kmh S 10.4 mph16.7 kmh 30.09 in1019.0 mb 0.00 in0.0 mm 0.00 in0.0 mm 0.00 in0.0 mm
12:15 PM 63.5°F17.5°C 56.9°F13.8°C 79% 4.9 mph S7.9 kmh S 13.6 mph21.9 kmh 30.09 in1019.0 mb 0.00 in0.0 mm 0.00 in0.0 mm 0.00 in0.0 mm
12:30 PM 63.7°F17.6°C 56.7°F13.7°C 78% 5.3 mph S8.5 kmh S 11.5 mph18.5 kmh 30.07 in1018.3 mb 0.00 in0.0 mm 0.00 in0.0 mm 0.00 in0.0 mm
12:45 PM 63.7°F17.6°C 56.0°F13.3°C 76% 8.3 mph S13.4 kmh S 20.4 mph32.8 kmh 30.09 in1019.0 mb 0.00 in0.0 mm 0.00 in0.0 mm 0.00 in0.0 mm
01:00 PM 64.0°F17.8°C 55.6°F13.1°C 74% 8.2 mph S13.2 kmh S 16.1 mph25.9 kmh 30.07 in1018.3 mb 0.00 in0.0 mm 0.00 in0.0 mm 0.00 in0.0 mm
01:15 PM 64.0°F17.8°C 55.2°F12.9°C 73% 7.6 mph S12.2 kmh S 23.3 mph37.5 kmh 29.98 in1015.2 mb 0.00 in0.0 mm 0.00 in0.0 mm 0.00 in0.0 mm
01:30 PM 64.4°F18.0°C 55.2°F12.9°C 72% 6.5 mph S10.5 kmh S 15.7 mph25.3 kmh 27.91 in945.1 mb 0.00 in0.0 mm 0.00 in0.0 mm 0.00 in0.0 mm
01:45 PM 64.0°F17.8°C 54.1°F12.3°C 70% 7.1 mph S11.4 kmh S 17.5 mph28.2 kmh 27.26 in923.1 mb 0.00 in0.0 mm 0.00 in0.0 mm 0.00 in0.0 mm
02:00 PM 63.7°F17.6°C 54.1°F12.3°C 71% 6.4 mph S10.3 kmh S 12.9 mph20.8 kmh 27.32 in925.2 mb 0.00 in0.0 mm 0.00 in0.0 mm 0.00 in0.0 mm
02:15 PM 63.5°F17.5°C 54.3°F12.4°C 72% 4.4 mph S7.1 kmh S 10.0 mph16.1 kmh 26.96 in913.0 mb 0.00 in0.0 mm 0.00 in0.0 mm 0.00 in0.0 mm
08:45 PM 57.6°F14.2°C 52.8°F11.6°C 84% 3.7 mph SSW6.0 kmh SSW 6.8 mph10.9 kmh 29.80 in1009.1 mb 0.00 in0.0 mm 0.00 in0.0 mm 0.00 in0.0 mm
09:00 PM 57.2°F14.0°C 52.4°F11.3°C 84% 3.4 mph S5.5 kmh S 7.5 mph12.1 kmh 29.80 in1009.1 mb 0.00 in0.0 mm 0.00 in0.0 mm 0.00 in0.0 mm
09:15 PM 57.0°F13.9°C 52.2°F11.2°C 84% 3.7 mph S6.0 kmh S 10.0 mph16.1 kmh 29.80 in1009.1 mb 0.00 in0.0 mm 0.00 in0.0 mm 0.00 in0.0 mm
09:30 PM 56.5°F13.6°C 51.7°F10.9°C 84% 3.2 mph S5.1 kmh S 10.0 mph16.1 kmh 29.80 in1009.1 mb 0.00 in0.0 mm 0.00 in0.0 mm 0.00 in0.0 mm
09:45 PM 56.3°F13.5°C 51.8°F11.0°C 85% 3.7 mph S6.0 kmh S 8.9 mph14.3 kmh 29.80 in1009.1 mb 0.00 in0.0 mm 0.00 in0.0 mm 0.00 in0.0 mm
10:00 PM 55.9°F13.3°C 51.5°F10.8°C 85% 2.8 mph S4.5 kmh S 6.8 mph10.9 kmh 29.77 in1008.1 mb 0.00 in0.0 mm 0.00 in0.0 mm 0.00 in0.0 mm
10:15 PM 55.8°F13.2°C 51.3°F10.7°C 85% 3.1 mph S5.0 kmh S 7.9 mph12.7 kmh 29.80 in1009.1 mb 0.00 in0.0 mm 0.00 in0.0 mm 0.00 in0.0 mm
10:30 PM 55.6°F13.1°C 51.1°F10.6°C 85% 4.8 mph S7.7 kmh S 10.0 mph16.1 kmh 29.80 in1009.1 mb 0.00 in0.0 mm 0.00 in0.0 mm 0.00 in0.0 mm
10:45 PM 55.6°F13.1°C 51.5°F10.8°C 86% 4.0 mph S6.4 kmh S 7.5 mph12.1 kmh 29.77 in1008.1 mb 0.00 in0.0 mm 0.00 in0.0 mm 0.00 in0.0 mm
11:00 PM 55.6°F13.1°C 51.5°F10.8°C 86% 4.5 mph S7.2 kmh S 9.7 mph15.6 kmh 29.77 in1008.1 mb 0.00 in0.0 mm 0.00 in0.0 mm 0.00 in0.0 mm
11:15 PM 55.8°F13.2°C 51.9°F11.1°C 87% 4.6 mph SW7.4 kmh SW 10.0 mph16.1 kmh 29.77 in1008.1 mb 0.00 in0.0 mm 0.00 in0.0 mm 0.00 in0.0 mm
11:30 PM 55.9°F13.3°C 52.1°F11.2°C 87% 4.2 mph SW6.8 kmh SW 8.6 mph13.8 kmh 29.80 in1009.1 mb 0.00 in0.0 mm 0.00 in0.0 mm 0.00 in0.0 mm
11:45 PM 55.9°F13.3°C 52.4°F11.3°C 88% 3.2 mph SW5.1 kmh SW 6.8 mph10.9 kmh 29.77 in1008.1 mb 0.00 in0.0 mm 0.00 in0.0 mm 0.00 in0.0 mm